createdAt,value
2022-08-04T00:00:59.501Z,101126.84
2022-08-04T00:03:41.173Z,101126.22
2022-08-04T00:06:16.922Z,101129.19
2022-08-04T00:08:50.571Z,101115.81
2022-08-04T00:11:22.483Z,101117.09
2022-08-04T00:14:04.992Z,101116.03
2022-08-04T00:16:37.796Z,101120.06
2022-08-04T00:19:11.798Z,101114.97
2022-08-04T00:21:42.010Z,101112.41
2022-08-04T00:24:14.458Z,101113.91
2022-08-04T00:26:41.899Z,101115.16
2022-08-04T00:29:08.552Z,101108.16
2022-08-04T00:31:56.475Z,101112.19
2022-08-04T00:34:27.242Z,101106.66
2022-08-04T00:36:54.449Z,101103.47
2022-08-04T00:39:21.388Z,101099.41
2022-08-04T00:42:24.461Z,101102.59
2022-08-04T00:45:09.609Z,101093.06
2022-08-04T00:47:50.886Z,101094.31
2022-08-04T00:50:44.078Z,101099.19
2022-08-04T00:53:49.961Z,101093.63
2022-08-04T00:56:19.756Z,101095.75
2022-08-04T00:58:52.205Z,101097.44
2022-08-04T01:01:37.598Z,101089.81
2022-08-04T01:04:11.742Z,101097.22
2022-08-04T01:06:58.674Z,101088.09
2022-08-04T01:09:45.423Z,101084.94
2022-08-04T01:12:33.647Z,101084.50
2022-08-04T01:15:06.810Z,101083.22
2022-08-04T01:17:36.449Z,101081.72
2022-08-04T01:20:08.979Z,101071.97
2022-08-04T01:23:10.121Z,101069.63
2022-08-04T01:25:54.150Z,101071.53
2022-08-04T01:28:30.984Z,101067.50
2022-08-04T01:31:01.298Z,101067.69
2022-08-04T01:34:03.257Z,101062.19
2022-08-04T01:36:24.890Z,101059.38
2022-08-04T01:38:54.140Z,101067.41
2022-08-04T01:41:32.223Z,101061.69
2022-08-04T01:44:04.301Z,101060.59
2022-08-04T01:46:33.869Z,101071.81
2022-08-04T01:49:02.686Z,101066.72
2022-08-04T01:51:34.986Z,101065.03
2022-08-04T01:54:09.220Z,101057.19
2022-08-04T01:56:36.747Z,101060.13
2022-08-04T01:59:03.874Z,101058.66
2022-08-04T02:01:36.519Z,101052.66
2022-08-04T02:04:21.504Z,101056.69
2022-08-04T02:06:59.253Z,101056.03
2022-08-04T02:09:28.786Z,101056.25
2022-08-04T02:12:03.798Z,101045.66
2022-08-04T02:15:13.798Z,101047.31
2022-08-04T02:17:43.391Z,101042.84
2022-08-04T02:20:23.162Z,101038.41
2022-08-04T02:22:54.990Z,101037.78
2022-08-04T02:25:26.872Z,101037.13
2022-08-04T02:28:28.162Z,101035.63
2022-08-04T02:30:57.289Z,101034.78
2022-08-04T02:33:38.690Z,101038.59
2022-08-04T02:36:09.273Z,101031.38
2022-08-04T02:39:00.120Z,101024.38
2022-08-04T02:41:28.917Z,101027.13
2022-08-04T02:44:02.283Z,101026.28
2022-08-04T02:46:29.898Z,101027.34
2022-08-04T02:48:57.315Z,101029.25
2022-08-04T02:51:28.833Z,101024.16
2022-08-04T02:54:01.689Z,101017.75
2022-08-04T02:56:31.530Z,101019.88
2022-08-04T02:59:03.778Z,101016.47
2022-08-04T03:01:31.572Z,101020.28
2022-08-04T03:04:24.689Z,101012.63
2022-08-04T03:07:22.975Z,101012.00
2022-08-04T03:10:10.632Z,101016.00
2022-08-04T03:13:01.831Z,101010.91
2022-08-04T03:15:46.446Z,101012.16
2022-08-04T03:18:31.839Z,101009.59
2022-08-04T03:21:36.918Z,101005.56
2022-08-04T03:24:26.628Z,101005.75
2022-08-04T03:27:10.874Z,101005.97
2022-08-04T03:29:56.246Z,101000.03
2022-08-04T03:32:41.575Z,100992.19
2022-08-04T03:35:32.821Z,100997.88
2022-08-04T03:38:17.528Z,100992.59
2022-08-04T03:41:57.391Z,100994.84
2022-08-04T03:44:38.950Z,100997.16
2022-08-04T03:47:29.949Z,100992.25
2022-08-04T03:50:12.997Z,100993.31
2022-08-04T03:53:20.389Z,100989.25
2022-08-04T03:55:54.722Z,100990.97
2022-08-04T03:58:40.542Z,100992.41
2022-08-04T04:01:13.262Z,100988.63
2022-08-04T04:04:18.102Z,100978.66
2022-08-04T04:07:35.690Z,100981.63
2022-08-04T04:10:26.558Z,100976.97
2022-08-04T04:13:33.005Z,100978.66
2022-08-04T04:16:26.451Z,100978.22
2022-08-04T04:19:20.523Z,100979.69
2022-08-04T04:22:11.692Z,100973.31
2022-08-04T04:25:03.451Z,100973.97
2022-08-04T04:28:44.456Z,100973.56
2022-08-04T04:31:27.924Z,100973.38
2022-08-04T04:34:16.946Z,100968.72
2022-08-04T04:37:17.712Z,100975.53
2022-08-04T04:40:06.161Z,100989.72
2022-08-04T04:42:35.425Z,101006.66
2022-08-04T04:45:21.030Z,101006.84
2022-08-04T04:48:08.257Z,101012.75
2022-08-04T04:50:46.330Z,100996.25
2022-08-04T04:53:45.103Z,100995.63
2022-08-04T04:56:39.528Z,101015.28
2022-08-04T04:59:11.431Z,101022.09
2022-08-04T05:02:00.866Z,101034.78
2022-08-04T05:05:04.907Z,101033.09
2022-08-04T05:07:40.231Z,101044.09
2022-08-04T05:10:33.626Z,101048.13
2022-08-04T05:14:36.438Z,101040.72
2022-08-04T05:16:35.076Z,101033.97
2022-08-04T05:19:23.313Z,101042.09
2022-08-04T05:22:04.277Z,101039.41
2022-08-04T05:24:37.634Z,101037.75
2022-08-04T05:27:12.090Z,101036.75
2022-08-04T05:29:47.103Z,101041.88
2022-08-04T05:32:16.820Z,101051.69
2022-08-04T05:34:54.087Z,101048.97
2022-08-04T05:37:22.630Z,101046.25
2022-08-04T05:40:04.486Z,101055.19
2022-08-04T05:42:34.869Z,101054.19
2022-08-04T05:45:03.153Z,101065.03
2022-08-04T05:47:32.017Z,101068.00
2022-08-04T05:50:02.021Z,101048.13
2022-08-04T05:52:31.572Z,101054.06
2022-08-04T05:54:59.573Z,101046.88
2022-08-04T05:57:26.828Z,101047.16
2022-08-04T05:59:58.785Z,101052.03
2022-08-04T06:02:27.918Z,101064.97
2022-08-04T06:04:56.489Z,101063.50
2022-08-04T06:07:23.364Z,101051.84
2022-08-04T06:09:51.069Z,101045.50
2022-08-04T06:13:00.869Z,101041.06
2022-08-04T06:15:28.386Z,101043.03
2022-08-04T06:19:40.149Z,101034.75
2022-08-04T06:20:53.092Z,101040.28
2022-08-04T06:23:26.065Z,101036.88
2022-08-04T06:25:57.080Z,101029.72
2022-08-04T06:28:24.732Z,101033.53
2022-08-04T06:30:53.076Z,101041.16
2022-08-04T06:33:54.485Z,101037.75
2022-08-04T06:36:20.770Z,101037.75
2022-08-04T06:38:47.827Z,101037.53
2022-08-04T06:41:25.765Z,101035.19
2022-08-04T06:43:53.951Z,101033.88
2022-08-04T06:46:21.453Z,101035.84
2022-08-04T06:48:50.790Z,101041.09
2022-08-04T06:51:28.658Z,101040.41
2022-08-04T06:54:04.805Z,101037.09
2022-08-04T06:56:35.041Z,101038.31
2022-08-04T06:59:03.577Z,101039.94
2022-08-04T07:01:31.111Z,101031.94
2022-08-04T07:04:01.114Z,101029.28
2022-08-04T07:06:27.819Z,101045.06
2022-08-04T07:08:56.386Z,101046.56
2022-08-04T07:11:24.851Z,101045.16
2022-08-04T07:13:53.786Z,101044.31
2022-08-04T07:16:22.010Z,101052.50
2022-08-04T07:18:57.667Z,101052.34
2022-08-04T07:21:24.877Z,101047.16
2022-08-04T07:23:53.950Z,101044.44
2022-08-04T07:26:26.410Z,101043.03
2022-08-04T07:28:53.006Z,101044.03
2022-08-04T07:31:34.593Z,101045.00
2022-08-04T07:34:21.083Z,101047.44
2022-08-04T07:36:53.002Z,101047.25
2022-08-04T07:39:29.636Z,101044.25
2022-08-04T07:41:59.043Z,101038.84
2022-08-04T07:44:27.918Z,101046.97
2022-08-04T07:46:55.099Z,101047.84
2022-08-04T07:49:56.571Z,101044.88
2022-08-04T07:52:08.788Z,101055.63
2022-08-04T07:54:40.008Z,101054.28
2022-08-04T07:57:06.700Z,101058.53
2022-08-04T07:59:35.202Z,101054.66
2022-08-04T08:02:02.563Z,101064.44
2022-08-04T08:04:30.063Z,101064.44
2022-08-04T08:06:57.716Z,101060.09
2022-08-04T08:09:24.568Z,101066.97
2022-08-04T08:12:35.441Z,101065.03
2022-08-04T08:14:41.385Z,101053.00
2022-08-04T08:17:08.166Z,101059.31
2022-08-04T08:19:35.653Z,101048.34
2022-08-04T08:22:02.883Z,101040.75
2022-08-04T08:24:32.509Z,101042.66
2022-08-04T08:27:00.296Z,101043.25
2022-08-04T08:29:29.599Z,101048.84
2022-08-04T08:32:01.482Z,101055.31
2022-08-04T08:34:33.016Z,101051.81
2022-08-04T08:37:09.701Z,101052.97
2022-08-04T08:39:43.018Z,101057.50
2022-08-04T08:42:34.234Z,101064.47
2022-08-04T08:45:26.247Z,101074.31
2022-08-04T08:48:31.358Z,101066.03
2022-08-04T08:51:47.683Z,101072.44
2022-08-04T08:54:35.784Z,101067.03
2022-08-04T08:57:17.310Z,101066.88
2022-08-04T09:00:07.464Z,101064.69
2022-08-04T09:02:44.896Z,101070.84
2022-08-04T09:05:36.521Z,101079.28
2022-08-04T09:08:08.878Z,101071.88
2022-08-04T09:11:05.894Z,101081.66
2022-08-04T09:13:41.578Z,101092.97
2022-08-04T09:16:19.153Z,101087.22
2022-08-04T09:19:04.461Z,101084.25
2022-08-04T09:21:41.958Z,101084.94
2022-08-04T09:24:36.449Z,101092.19
2022-08-04T09:27:09.842Z,101093.28
2022-08-04T09:29:39.324Z,101101.72
2022-08-04T09:32:41.353Z,101107.13
2022-08-04T09:35:33.790Z,101105.59
2022-08-04T09:38:19.177Z,101103.72
2022-08-04T09:40:53.449Z,101105.13
2022-08-04T09:44:43.103Z,101116.03
2022-08-04T09:47:10.590Z,101105.22
2022-08-04T09:49:43.722Z,101111.63
2022-08-04T09:52:25.397Z,101113.81
2022-08-04T09:55:20.837Z,101114.84
2022-08-04T09:57:58.190Z,101123.47
2022-08-04T10:00:40.435Z,101139.34
2022-08-04T10:03:19.669Z,101144.34
2022-08-04T10:05:55.823Z,101139.81
2022-08-04T10:08:57.162Z,101136.00
2022-08-04T10:11:55.579Z,101145.03
2022-08-04T10:14:48.003Z,101146.22
2022-08-04T10:17:35.883Z,101152.72
2022-08-04T10:20:44.296Z,101151.09
2022-08-04T10:23:55.082Z,101168.69
2022-08-04T10:26:26.191Z,101183.00
2022-08-04T10:29:02.492Z,101170.84
2022-08-04T10:31:35.519Z,101178.06
2022-08-04T10:34:29.600Z,101196.44
2022-08-04T10:37:04.367Z,101208.09
2022-08-04T10:40:06.956Z,101215.03
2022-08-04T10:42:37.422Z,101213.31
2022-08-04T10:45:19.769Z,101224.19
2022-08-04T10:48:02.481Z,101245.34
2022-08-04T10:50:29.977Z,101240.09
2022-08-04T10:53:03.563Z,101243.28
2022-08-04T10:56:06.450Z,101243.22
2022-08-04T10:58:59.910Z,101247.66
2022-08-04T11:01:50.742Z,101252.63
2022-08-04T11:04:37.715Z,101232.28
2022-08-04T11:07:04.867Z,101206.66
2022-08-04T11:09:33.944Z,101203.66
2022-08-04T11:12:12.810Z,101175.66
2022-08-04T11:14:53.280Z,101160.03
2022-08-04T11:17:26.236Z,101162.66
2022-08-04T11:23:13.994Z,101177.50
2022-08-04T11:25:52.971Z,101183.97
2022-08-04T11:28:30.549Z,101186.03
2022-08-04T11:31:05.691Z,101198.97
2022-08-04T11:34:16.046Z,101204.09
2022-08-04T11:37:14.014Z,101221.34
2022-08-04T11:39:47.303Z,101224.81
2022-08-04T11:42:22.019Z,101218.47
2022-08-04T11:45:04.848Z,101210.22
2022-08-04T11:47:54.427Z,101203.50
2022-08-04T11:50:27.493Z,101197.63
2022-08-04T11:52:57.828Z,101178.97
2022-08-04T11:55:27.087Z,101194.72
2022-08-04T11:57:54.881Z,101198.72
2022-08-04T12:00:22.712Z,101195.69
2022-08-04T12:03:18.704Z,101196.44
2022-08-04T12:06:15.660Z,101192.47
2022-08-04T12:09:22.270Z,101185.78
2022-08-04T12:12:13.761Z,101190.50
2022-08-04T12:14:55.214Z,101189.66
2022-08-04T12:17:53.448Z,101187.44
2022-08-04T12:20:32.194Z,101185.84
2022-08-04T12:23:17.488Z,101185.91
2022-08-04T12:25:47.753Z,101189.34
2022-08-04T12:28:23.383Z,101196.00
2022-08-04T12:31:01.050Z,101190.72
2022-08-04T12:34:04.423Z,101197.47
2022-08-04T12:36:37.324Z,101187.84
2022-08-04T12:39:15.783Z,101183.03
2022-08-04T12:42:02.327Z,101190.41
2022-08-04T12:44:37.710Z,101208.28
2022-08-04T12:47:26.592Z,101208.16
2022-08-04T12:50:02.300Z,101207.53
2022-08-04T12:53:04.349Z,101211.63
2022-08-04T12:55:35.131Z,101206.22
2022-08-04T12:58:04.177Z,101211.91
2022-08-04T13:00:40.808Z,101225.31
2022-08-04T13:03:16.934Z,101223.38
2022-08-04T13:05:45.085Z,101233.88
2022-08-04T13:08:12.911Z,101238.22
2022-08-04T13:10:47.824Z,101230.84
2022-08-04T13:13:29.008Z,101237.94
2022-08-04T13:16:00.493Z,101232.88
2022-08-04T13:18:32.045Z,101234.19
2022-08-04T13:21:20.108Z,101230.56
2022-08-04T13:24:10.560Z,101232.13
2022-08-04T13:26:55.257Z,101235.97
2022-08-04T13:30:00.574Z,101224.50
2022-08-04T13:32:22.229Z,101239.38
2022-08-04T13:34:52.782Z,101242.03
2022-08-04T13:37:26.752Z,101232.03
2022-08-04T13:39:56.404Z,101230.63
2022-08-04T13:42:26.513Z,101224.47
2022-08-04T13:44:59.651Z,101229.94
2022-08-04T13:47:34.036Z,101232.84
2022-08-04T13:50:22.506Z,101220.41
2022-08-04T13:52:59.354Z,101220.41
2022-08-04T13:55:35.160Z,101216.31
2022-08-04T13:58:09.240Z,101212.56
2022-08-04T14:00:44.108Z,101216.94
2022-08-04T14:03:24.140Z,101214.91
2022-08-04T14:06:19.147Z,101206.44
2022-08-04T14:08:51.701Z,101209.59
2022-08-04T14:12:08.881Z,101215.03
2022-08-04T14:14:33.801Z,101209.09
2022-08-04T14:17:19.965Z,101207.38
2022-08-04T14:19:47.705Z,101206.72
2022-08-04T14:22:26.565Z,101215.91
2022-08-04T14:25:15.811Z,101207.13
2022-08-04T14:27:43.179Z,101211.63
2022-08-04T14:30:32.170Z,101206.94
2022-08-04T14:33:59.622Z,101197.63
2022-08-04T14:36:04.182Z,101203.28
2022-08-04T14:38:57.370Z,101205.84
2022-08-04T14:41:29.569Z,101200.28
2022-08-04T14:44:02.375Z,101196.78
2022-08-04T14:46:37.015Z,101195.78
2022-08-04T14:49:03.748Z,101188.19
2022-08-04T14:51:55.256Z,101190.25
2022-08-04T14:54:30.572Z,101191.06
2022-08-04T14:57:08.670Z,101194.81
2022-08-04T14:59:59.464Z,101196.84
2022-08-04T15:02:30.041Z,101188.13
2022-08-04T15:04:57.785Z,101191.00
2022-08-04T15:07:25.478Z,101194.91
2022-08-04T15:09:52.466Z,101190.63
2022-08-04T15:12:20.273Z,101186.50
2022-08-04T15:14:48.634Z,101193.25
2022-08-04T15:17:30.220Z,101191.81
2022-08-04T15:19:57.262Z,101190.88
2022-08-04T15:22:24.079Z,101185.81
2022-08-04T15:24:56.033Z,101184.22
2022-08-04T15:27:32.507Z,101185.56
2022-08-04T15:30:08.323Z,101184.13
2022-08-04T15:32:38.421Z,101187.50
2022-08-04T15:35:13.585Z,101182.19
2022-08-04T15:37:49.485Z,101186.66
2022-08-04T15:40:33.311Z,101178.81
2022-08-04T15:43:29.941Z,101173.00
2022-08-04T15:46:30.759Z,101166.47
2022-08-04T15:48:47.341Z,101173.59
2022-08-04T15:51:31.794Z,101166.09
2022-08-04T15:54:02.528Z,101161.13
2022-08-04T15:56:30.819Z,101155.78
2022-08-04T15:58:57.651Z,101169.38
2022-08-04T16:01:24.834Z,101165.63
2022-08-04T16:04:25.130Z,101164.53
2022-08-04T16:07:04.055Z,101172.28
2022-08-04T16:09:45.139Z,101177.22
2022-08-04T16:12:54.749Z,101168.78
2022-08-04T16:15:56.132Z,101172.81
2022-08-04T16:18:30.272Z,101180.69
2022-08-04T16:21:03.903Z,101182.63
2022-08-04T16:23:56.828Z,101173.81
2022-08-04T16:26:45.259Z,101172.00
2022-08-04T16:29:24.819Z,101173.56
2022-08-04T16:32:12.636Z,101172.38
2022-08-04T16:34:54.665Z,101169.25
2022-08-04T16:37:29.069Z,101163.16
2022-08-04T16:40:37.625Z,101167.16
2022-08-04T16:43:16.752Z,101171.50
2022-08-04T16:45:55.498Z,101161.25
2022-08-04T16:48:29.116Z,101155.44
2022-08-04T16:51:03.233Z,101154.25
2022-08-04T16:54:02.870Z,101154.72
2022-08-04T16:56:36.164Z,101158.09
2022-08-04T16:59:11.485Z,101153.88
2022-08-04T17:01:49.989Z,101149.91
2022-08-04T17:04:36.561Z,101152.53
2022-08-04T17:07:06.289Z,101155.41
2022-08-04T17:09:33.219Z,101148.41
2022-08-04T17:12:02.235Z,101163.63
2022-08-04T17:14:31.348Z,101157.09
2022-08-04T17:17:01.141Z,101147.91
2022-08-04T17:19:27.872Z,101152.03
2022-08-04T17:22:03.040Z,101150.56
2022-08-04T17:24:35.084Z,101154.06
2022-08-04T17:27:01.877Z,101152.59
2022-08-04T17:29:42.884Z,101154.41
2022-08-04T17:32:20.966Z,101160.91
2022-08-04T17:35:03.586Z,101156.75
2022-08-04T17:37:39.439Z,101161.06
2022-08-04T17:40:11.272Z,101169.00
2022-08-04T17:42:41.682Z,101173.34
2022-08-04T17:48:00.772Z,101176.44
2022-08-04T17:50:35.885Z,101172.94
2022-08-04T17:53:11.713Z,101175.19
2022-08-04T17:55:47.150Z,101177.44
2022-08-04T17:58:26.851Z,101185.84
2022-08-04T18:03:52.809Z,101177.91
2022-08-04T18:06:23.391Z,101183.72
2022-08-04T18:08:58.188Z,101185.72
2022-08-04T18:11:29.785Z,101192.66
2022-08-04T18:14:09.801Z,101201.28
2022-08-04T18:16:45.295Z,101201.56
2022-08-04T18:19:19.038Z,101203.09
2022-08-04T18:21:59.585Z,101211.88
2022-08-04T18:24:35.292Z,101205.91
2022-08-04T18:27:22.324Z,101208.50
2022-08-04T18:30:33.347Z,101213.66
2022-08-04T18:32:56.426Z,101213.94
2022-08-04T18:36:31.285Z,101208.47
2022-08-04T18:38:22.662Z,101211.50
2022-08-04T18:40:52.800Z,101224.53
2022-08-04T18:43:28.547Z,101225.28
2022-08-04T18:45:59.558Z,101233.81
2022-08-04T18:48:35.912Z,101238.31
2022-08-04T18:51:10.801Z,101240.50
2022-08-04T18:56:36.723Z,101254.69
2022-08-04T18:59:10.251Z,101248.97
2022-08-04T19:02:16.352Z,101256.88
2022-08-04T19:04:33.098Z,101258.16
2022-08-04T19:07:24.479Z,101275.00
2022-08-04T19:09:51.933Z,101284.81
2022-08-04T19:12:26.675Z,101291.19
2022-08-04T19:14:57.995Z,101286.75
2022-08-04T19:17:52.525Z,101292.50
2022-08-04T19:20:16.049Z,101293.78
2022-08-04T19:24:28.648Z,101300.31
2022-08-04T19:25:58.618Z,101305.22
2022-08-04T19:28:33.944Z,101302.25
2022-08-04T19:31:01.782Z,101318.81
2022-08-04T19:33:30.438Z,101317.94
2022-08-04T19:36:20.860Z,101322.19
2022-08-04T19:38:58.147Z,101326.66
2022-08-04T19:41:26.499Z,101323.47
2022-08-04T19:43:54.470Z,101327.91
2022-08-04T19:46:21.525Z,101337.66
2022-08-04T19:48:59.021Z,101341.91
2022-08-04T19:51:27.957Z,101342.97
2022-08-04T19:54:02.446Z,101345.53
2022-08-04T19:56:39.855Z,101350.59
2022-08-04T19:59:10.914Z,101347.16
2022-08-04T20:01:44.184Z,101347.59
2022-08-04T20:04:12.833Z,101355.44
2022-08-04T20:06:39.735Z,101363.06
2022-08-04T20:09:24.459Z,101359.63
2022-08-04T20:11:54.155Z,101363.44
2022-08-04T20:14:32.525Z,101362.38
2022-08-04T20:17:10.299Z,101365.56
2022-08-04T20:19:38.061Z,101372.34
2022-08-04T20:22:05.120Z,101385.28
2022-08-04T20:24:46.921Z,101377.88
2022-08-04T20:27:18.731Z,101371.50
2022-08-04T20:29:49.890Z,101368.94
2022-08-04T20:32:22.201Z,101375.72
2022-08-04T20:34:53.307Z,101388.03
2022-08-04T20:37:23.395Z,101394.16
2022-08-04T20:39:56.094Z,101388.41
2022-08-04T20:42:27.141Z,101383.31
2022-08-04T20:45:02.593Z,101382.66
2022-08-04T20:47:35.069Z,101389.03
2022-08-04T20:50:09.480Z,101392.44
2022-08-04T20:52:37.209Z,101402.19
2022-08-04T20:55:05.565Z,101425.97
2022-08-04T20:57:48.615Z,101447.38
2022-08-04T21:00:17.645Z,101476.16
2022-08-04T21:02:59.356Z,101481.44
2022-08-04T21:05:26.697Z,101472.47
2022-08-04T21:07:56.641Z,101469.84
2022-08-04T21:10:27.043Z,101458.13
2022-08-04T21:12:57.927Z,101437.66
2022-08-04T21:15:26.293Z,101424.81
2022-08-04T21:18:13.480Z,101421.97
2022-08-04T21:20:42.858Z,101424.41
2022-08-04T21:23:12.127Z,101434.03
2022-08-04T21:25:42.781Z,101432.19
2022-08-04T21:28:10.599Z,101439.88
2022-08-04T21:30:54.592Z,101435.16
2022-08-04T21:33:50.238Z,101432.34
2022-08-04T21:36:16.102Z,101441.56
2022-08-04T21:38:51.062Z,101429.44
2022-08-04T21:41:20.383Z,101419.56
2022-08-04T21:43:55.851Z,101395.97
2022-08-04T21:46:22.668Z,101377.22
2022-08-04T21:48:49.593Z,101361.03
2022-08-04T21:51:21.772Z,101347.88
2022-08-04T21:54:14.924Z,101337.63
2022-08-04T21:56:51.570Z,101331.47
2022-08-04T21:59:23.743Z,101336.31
2022-08-04T22:01:57.916Z,101319.81
2022-08-04T22:04:29.435Z,101307.31
2022-08-04T22:06:56.135Z,101338.97
2022-08-04T22:09:22.693Z,101378.50
2022-08-04T22:11:51.791Z,101412.31
2022-08-04T22:14:29.493Z,101441.03
2022-08-04T22:17:02.624Z,101412.41
2022-08-04T22:19:40.916Z,101384.34
2022-08-04T22:22:25.217Z,101382.94
2022-08-04T22:24:55.139Z,101361.41
2022-08-04T22:27:43.868Z,101333.38
2022-08-04T22:30:17.103Z,101326.94
2022-08-04T22:33:03.469Z,101331.25
2022-08-04T22:35:35.808Z,101331.81
2022-08-04T22:38:24.233Z,101328.69
2022-08-04T22:41:03.709Z,101329.75
2022-08-04T22:43:34.645Z,101343.47
2022-08-04T22:46:12.100Z,101355.50
2022-08-04T22:48:39.882Z,101330.59
2022-08-04T22:51:10.082Z,101313.47
2022-08-04T22:53:41.949Z,101325.66
2022-08-04T22:56:16.383Z,101331.16
2022-08-04T22:59:03.099Z,101318.47
2022-08-04T23:01:58.090Z,101308.91
2022-08-04T23:04:16.874Z,101319.78
2022-08-04T23:06:43.492Z,101319.31
2022-08-04T23:09:15.911Z,101309.34
2022-08-04T23:11:43.399Z,101315.00
2022-08-04T23:14:12.493Z,101335.25
2022-08-04T23:16:40.643Z,101329.97
2022-08-04T23:19:12.197Z,101329.09
2022-08-04T23:21:47.641Z,101340.94
2022-08-04T23:24:30.404Z,101333.09
2022-08-04T23:26:58.990Z,101334.31
2022-08-04T23:29:25.493Z,101340.16
2022-08-04T23:32:00.254Z,101350.28
2022-08-04T23:34:31.419Z,101348.59
2022-08-04T23:36:59.103Z,101364.19
2022-08-04T23:39:26.215Z,101369.31
2022-08-04T23:42:15.110Z,101366.56
2022-08-04T23:44:48.614Z,101360.22
2022-08-04T23:48:15.738Z,101370.34
2022-08-04T23:50:01.763Z,101377.38
2022-08-04T23:52:30.914Z,101370.84
2022-08-04T23:55:01.104Z,101370.66
2022-08-04T23:58:02.614Z,101366.19
